sensor_id;sensor_type;location;lat;lon;timestamp;pressure;altitude;pressure_sealevel;temperature;humidity
57102;BME280;42982;54.558;18.508;2022-07-10T00:00:16;100613.28;;;17.11;67.44
57102;BME280;42982;54.558;18.508;2022-07-10T00:01:19;100610.91;;;17.10;67.38
57102;BME280;42982;54.558;18.508;2022-07-10T00:02:24;100612.84;;;17.09;67.47
57102;BME280;42982;54.558;18.508;2022-07-10T00:03:26;100612.84;;;17.09;67.60
57102;BME280;42982;54.558;18.508;2022-07-10T00:04:33;100609.78;;;17.11;67.63
57102;BME280;42982;54.558;18.508;2022-07-10T00:05:39;100614.91;;;17.12;67.64
57102;BME280;42982;54.558;18.508;2022-07-10T00:06:44;100611.84;;;17.14;67.80
57102;BME280;42982;54.558;18.508;2022-07-10T00:07:52;100608.50;;;17.17;67.79
57102;BME280;42982;54.558;18.508;2022-07-10T00:08:56;100610.13;;;17.18;67.66
57102;BME280;42982;54.558;18.508;2022-07-10T00:09:57;100614.41;;;17.19;67.69
57102;BME280;42982;54.558;18.508;2022-07-10T00:11:03;100607.41;;;17.18;67.63
57102;BME280;42982;54.558;18.508;2022-07-10T00:12:07;100611.22;;;17.17;67.87
57102;BME280;42982;54.558;18.508;2022-07-10T00:13:10;100615.84;;;17.17;67.95
57102;BME280;42982;54.558;18.508;2022-07-10T00:14:12;100610.13;;;17.18;68.00
57102;BME280;42982;54.558;18.508;2022-07-10T00:15:15;100610.91;;;17.19;68.16
57102;BME280;42982;54.558;18.508;2022-07-10T00:16:19;100607.41;;;17.18;68.35
57102;BME280;42982;54.558;18.508;2022-07-10T00:17:22;100604.69;;;17.18;68.21
57102;BME280;42982;54.558;18.508;2022-07-10T00:18:29;100601.31;;;17.12;68.25
57102;BME280;42982;54.558;18.508;2022-07-10T00:19:31;100604.50;;;17.14;68.12
57102;BME280;42982;54.558;18.508;2022-07-10T00:20:36;100605.31;;;17.15;68.12
57102;BME280;42982;54.558;18.508;2022-07-10T00:21:39;100601.47;;;17.16;68.06
57102;BME280;42982;54.558;18.508;2022-07-10T00:22:43;100594.13;;;17.17;68.01
57102;BME280;42982;54.558;18.508;2022-07-10T00:23:45;100592.19;;;17.17;67.85
57102;BME280;42982;54.558;18.508;2022-07-10T00:24:49;100594.47;;;17.15;68.17
57102;BME280;42982;54.558;18.508;2022-07-10T00:25:55;100596.69;;;17.13;68.06
57102;BME280;42982;54.558;18.508;2022-07-10T00:27:00;100599.91;;;17.15;68.31
57102;BME280;42982;54.558;18.508;2022-07-10T00:28:02;100601.00;;;17.14;68.01
57102;BME280;42982;54.558;18.508;2022-07-10T00:29:05;100597.47;;;17.13;67.98
57102;BME280;42982;54.558;18.508;2022-07-10T00:30:08;100596.69;;;17.13;67.86
57102;BME280;42982;54.558;18.508;2022-07-10T00:31:10;100597.47;;;17.13;68.06
57102;BME280;42982;54.558;18.508;2022-07-10T00:32:19;100588.53;;;17.13;67.96
57102;BME280;42982;54.558;18.508;2022-07-10T00:33:22;100594.75;;;17.13;67.99
57102;BME280;42982;54.558;18.508;2022-07-10T00:34:26;100586.31;;;17.15;67.93
57102;BME280;42982;54.558;18.508;2022-07-10T00:35:30;100588.19;;;17.14;67.82
57102;BME280;42982;54.558;18.508;2022-07-10T00:36:32;100583.59;;;17.15;67.72
57102;BME280;42982;54.558;18.508;2022-07-10T00:37:37;100582.78;;;17.14;67.99
57102;BME280;42982;54.558;18.508;2022-07-10T00:38:39;100579.25;;;17.14;68.24
57102;BME280;42982;54.558;18.508;2022-07-10T00:39:46;100574.63;;;17.14;68.13
57102;BME280;42982;54.558;18.508;2022-07-10T00:40:49;100575.75;;;17.13;67.86
57102;BME280;42982;54.558;18.508;2022-07-10T00:41:54;100569.53;;;17.13;68.07
57102;BME280;42982;54.558;18.508;2022-07-10T00:42:58;100566.81;;;17.13;68.00
57102;BME280;42982;54.558;18.508;2022-07-10T00:44:02;100569.53;;;17.13;68.03
57102;BME280;42982;54.558;18.508;2022-07-10T00:45:07;100565.22;;;17.12;68.02
57102;BME280;42982;54.558;18.508;2022-07-10T00:46:11;100562.50;;;17.12;68.06
57102;BME280;42982;54.558;18.508;2022-07-10T00:47:26;100567.94;;;17.12;67.71
57102;BME280;42982;54.558;18.508;2022-07-10T00:48:27;100557.06;;;17.12;67.75
57102;BME280;42982;54.558;18.508;2022-07-10T00:49:35;100557.88;;;17.12;67.92
57102;BME280;42982;54.558;18.508;2022-07-10T00:50:38;100559.78;;;17.12;67.93
57102;BME280;42982;54.558;18.508;2022-07-10T00:51:43;100561.69;;;17.11;68.25
57102;BME280;42982;54.558;18.508;2022-07-10T00:52:46;100555.78;;;17.09;68.06
57102;BME280;42982;54.558;18.508;2022-07-10T00:53:58;100555.44;;;17.11;68.26
57102;BME280;42982;54.558;18.508;2022-07-10T00:55:03;100555.78;;;17.09;68.15
57102;BME280;42982;54.558;18.508;2022-07-10T00:56:09;100556.09;;;17.08;68.16
57102;BME280;42982;54.558;18.508;2022-07-10T00:57:15;100550.19;;;17.06;68.18
57102;BME280;42982;54.558;18.508;2022-07-10T00:58:17;100554.50;;;17.07;67.91
57102;BME280;42982;54.558;18.508;2022-07-10T00:59:29;100547.94;;;17.08;68.17
57102;BME280;42982;54.558;18.508;2022-07-10T01:00:35;100547.94;;;17.08;68.00
57102;BME280;42982;54.558;18.508;2022-07-10T01:01:38;100545.22;;;17.08;68.07
57102;BME280;42982;54.558;18.508;2022-07-10T01:02:44;100535.50;;;17.07;68.17
57102;BME280;42982;54.558;18.508;2022-07-10T01:03:46;100536.63;;;17.06;67.94
57102;BME280;42982;54.558;18.508;2022-07-10T01:04:48;100547.50;;;17.06;68.03
57102;BME280;42982;54.558;18.508;2022-07-10T01:05:55;100547.50;;;17.06;67.98
57102;BME280;42982;54.558;18.508;2022-07-10T01:07:01;100548.28;;;17.06;68.08
57102;BME280;42982;54.558;18.508;2022-07-10T01:08:11;100552.44;;;17.04;68.01
57102;BME280;42982;54.558;18.508;2022-07-10T01:09:17;100554.34;;;17.03;68.09
57102;BME280;42982;54.558;18.508;2022-07-10T01:10:24;100559.00;;;17.03;67.96
57102;BME280;42982;54.558;18.508;2022-07-10T01:11:33;100551.94;;;17.02;67.85
57102;BME280;42982;54.558;18.508;2022-07-10T01:12:38;100562.81;;;17.02;68.02
57102;BME280;42982;54.558;18.508;2022-07-10T01:13:43;100544.94;;;17.01;68.05
57102;BME280;42982;54.558;18.508;2022-07-10T01:14:48;100550.38;;;17.01;68.09
57102;BME280;42982;54.558;18.508;2022-07-10T01:15:53;100555.00;;;17.00;67.95
57102;BME280;42982;54.558;18.508;2022-07-10T01:16:55;100543.34;;;17.00;67.82
57102;BME280;42982;54.558;18.508;2022-07-10T01:18:03;100552.59;;;16.99;67.71
57102;BME280;42982;54.558;18.508;2022-07-10T01:19:09;100547.97;;;16.99;67.74
57102;BME280;42982;54.558;18.508;2022-07-10T01:20:13;100549.56;;;17.00;67.80
57102;BME280;42982;54.558;18.508;2022-07-10T01:21:35;100555.66;;;16.97;67.46
57102;BME280;42982;54.558;18.508;2022-07-10T01:22:40;100552.59;;;16.99;67.62
57102;BME280;42982;54.558;18.508;2022-07-10T01:23:48;100549.56;;;16.91;67.46
57102;BME280;42982;54.558;18.508;2022-07-10T01:24:51;100554.34;;;16.95;67.61
57102;BME280;42982;54.558;18.508;2022-07-10T01:25:55;100542.38;;;16.96;67.36
57102;BME280;42982;54.558;18.508;2022-07-10T01:27:02;100541.28;;;16.97;67.57
57102;BME280;42982;54.558;18.508;2022-07-10T01:28:05;100540.13;;;16.98;67.47
57102;BME280;42982;54.558;18.508;2022-07-10T01:29:07;100545.56;;;16.98;67.69
57102;BME280;42982;54.558;18.508;2022-07-10T01:30:10;100547.16;;;16.99;67.63
57102;BME280;42982;54.558;18.508;2022-07-10T01:31:13;100544.44;;;16.99;67.75
57102;BME280;42982;54.558;18.508;2022-07-10T01:32:15;100536.28;;;16.99;67.44
57102;BME280;42982;54.558;18.508;2022-07-10T01:33:20;100546.06;;;17.00;67.68
57102;BME280;42982;54.558;18.508;2022-07-10T01:34:25;100531.69;;;16.99;67.74
57102;BME280;42982;54.558;18.508;2022-07-10T01:35:33;100538.69;;;17.00;67.83
57102;BME280;42982;54.558;18.508;2022-07-10T01:36:36;100528.63;;;17.01;67.88
57102;BME280;42982;54.558;18.508;2022-07-10T01:37:41;100524.00;;;17.01;67.76
57102;BME280;42982;54.558;18.508;2022-07-10T01:38:45;100527.84;;;17.00;67.70
57102;BME280;42982;54.558;18.508;2022-07-10T01:39:47;100527.84;;;17.00;67.71
57102;BME280;42982;54.558;18.508;2022-07-10T01:40:49;100530.41;;;16.97;67.91
57102;BME280;42982;54.558;18.508;2022-07-10T01:41:51;100531.19;;;16.97;67.82
57102;BME280;42982;54.558;18.508;2022-07-10T01:42:56;100533.13;;;16.97;67.98
57102;BME280;42982;54.558;18.508;2022-07-10T01:43:58;100520.63;;;16.96;68.03
57102;BME280;42982;54.558;18.508;2022-07-10T01:45:02;100520.63;;;16.96;68.19
57102;BME280;42982;54.558;18.508;2022-07-10T01:46:04;100523.34;;;16.96;68.03
57102;BME280;42982;54.558;18.508;2022-07-10T01:47:10;100524.50;;;16.95;67.84
57102;BME280;42982;54.558;18.508;2022-07-10T01:48:13;100518.75;;;16.96;67.58
57102;BME280;42982;54.558;18.508;2022-07-10T01:49:20;100520.63;;;16.96;67.63
57102;BME280;42982;54.558;18.508;2022-07-10T01:50:21;100514.75;;;16.94;67.62
57102;BME280;42982;54.558;18.508;2022-07-10T01:51:25;100514.25;;;16.91;67.89
57102;BME280;42982;54.558;18.508;2022-07-10T01:52:31;100518.13;;;16.90;67.72
57102;BME280;42982;54.558;18.508;2022-07-10T01:53:34;100516.97;;;16.91;67.86
57102;BME280;42982;54.558;18.508;2022-07-10T01:54:36;100513.47;;;16.91;67.75
57102;BME280;42982;54.558;18.508;2022-07-10T01:55:40;100509.97;;;16.90;67.89
57102;BME280;42982;54.558;18.508;2022-07-10T01:56:42;100523.84;;;16.89;68.00
57102;BME280;42982;54.558;18.508;2022-07-10T01:57:49;100511.06;;;16.89;68.00
57102;BME280;42982;54.558;18.508;2022-07-10T01:58:54;100510.28;;;16.89;68.31
57102;BME280;42982;54.558;18.508;2022-07-10T01:59:59;100505.19;;;16.87;68.20
57102;BME280;42982;54.558;18.508;2022-07-10T02:01:04;100504.38;;;16.87;68.40
57102;BME280;42982;54.558;18.508;2022-07-10T02:02:07;100503.56;;;16.86;68.40
57102;BME280;42982;54.558;18.508;2022-07-10T02:03:10;100517.16;;;16.78;68.54
57102;BME280;42982;54.558;18.508;2022-07-10T02:04:31;100503.91;;;16.76;68.64
57102;BME280;42982;54.558;18.508;2022-07-10T02:05:44;100502.81;;;16.77;68.65
57102;BME280;42982;54.558;18.508;2022-07-10T02:06:46;100503.59;;;16.78;68.63
57102;BME280;42982;54.558;18.508;2022-07-10T02:07:51;100501.00;;;16.73;69.32
57102;BME280;42982;54.558;18.508;2022-07-10T02:08:52;100500.69;;;16.74;68.98
57102;BME280;42982;54.558;18.508;2022-07-10T02:09:55;100499.59;;;16.75;68.96
57102;BME280;42982;54.558;18.508;2022-07-10T02:11:02;100505.81;;;16.76;68.77
57102;BME280;42982;54.558;18.508;2022-07-10T02:12:10;100501.19;;;16.76;68.49
57102;BME280;42982;54.558;18.508;2022-07-10T02:13:14;100503.91;;;16.76;68.88
57102;BME280;42982;54.558;18.508;2022-07-10T02:14:19;100499.59;;;16.75;68.94
57102;BME280;42982;54.558;18.508;2022-07-10T02:15:21;100497.97;;;16.74;68.92
57102;BME280;42982;54.558;18.508;2022-07-10T02:16:23;100499.88;;;16.74;69.16
57102;BME280;42982;54.558;18.508;2022-07-10T02:17:26;100489.00;;;16.74;69.14
57102;BME280;42982;54.558;18.508;2022-07-10T02:18:29;100497.16;;;16.74;69.44
57102;BME280;42982;54.558;18.508;2022-07-10T02:19:34;100492.56;;;16.74;69.31
57102;BME280;42982;54.558;18.508;2022-07-10T02:20:36;100487.13;;;16.74;69.33
57102;BME280;42982;54.558;18.508;2022-07-10T02:21:38;100493.66;;;16.73;69.31
57102;BME280;42982;54.558;18.508;2022-07-10T02:22:40;100486.63;;;16.72;69.45
57102;BME280;42982;54.558;18.508;2022-07-10T02:23:43;100487.75;;;16.71;69.51
57102;BME280;42982;54.558;18.508;2022-07-10T02:24:45;100483.91;;;16.72;69.70
57102;BME280;42982;54.558;18.508;2022-07-10T02:25:48;100488.22;;;16.73;69.67
57102;BME280;42982;54.558;18.508;2022-07-10T02:26:50;100488.56;;;16.72;69.48
57102;BME280;42982;54.558;18.508;2022-07-10T02:27:54;100476.91;;;16.71;69.66
57102;BME280;42982;54.558;18.508;2022-07-10T02:28:56;100475.28;;;16.70;69.62
57102;BME280;42982;54.558;18.508;2022-07-10T02:30:01;100482.34;;;16.71;69.58
57102;BME280;42982;54.558;18.508;2022-07-10T02:31:05;100480.41;;;16.72;69.56
57102;BME280;42982;54.558;18.508;2022-07-10T02:32:07;100476.91;;;16.71;69.71
57102;BME280;42982;54.558;18.508;2022-07-10T02:33:09;100491.56;;;16.70;69.93
57102;BME280;42982;54.558;18.508;2022-07-10T02:34:14;100491.56;;;16.70;69.71
57102;BME280;42982;54.558;18.508;2022-07-10T02:35:16;100489.19;;;16.68;69.75
57102;BME280;42982;54.558;18.508;2022-07-10T02:36:19;100492.22;;;16.67;69.86
57102;BME280;42982;54.558;18.508;2022-07-10T02:37:22;100489.50;;;16.67;69.88
57102;BME280;42982;54.558;18.508;2022-07-10T02:38:24;100481.34;;;16.67;69.98
57102;BME280;42982;54.558;18.508;2022-07-10T02:39:28;100481.34;;;16.67;69.89
57102;BME280;42982;54.558;18.508;2022-07-10T02:40:30;100472.13;;;16.68;69.95
57102;BME280;42982;54.558;18.508;2022-07-10T02:41:32;100481.84;;;16.69;70.00
57102;BME280;42982;54.558;18.508;2022-07-10T02:42:36;100471.78;;;16.69;70.40
57102;BME280;42982;54.558;18.508;2022-07-10T02:43:38;100475.28;;;16.70;70.21
57102;BME280;42982;54.558;18.508;2022-07-10T02:44:41;100469.06;;;16.69;70.61
57102;BME280;42982;54.558;18.508;2022-07-10T02:45:44;100466.69;;;16.68;70.26
57102;BME280;42982;54.558;18.508;2022-07-10T02:46:46;100472.13;;;16.68;69.99
57102;BME280;42982;54.558;18.508;2022-07-10T02:47:51;100472.91;;;16.68;70.08
57102;BME280;42982;54.558;18.508;2022-07-10T02:48:54;100475.94;;;16.67;70.16
57102;BME280;42982;54.558;18.508;2022-07-10T02:49:55;100466.69;;;16.68;70.18
57102;BME280;42982;54.558;18.508;2022-07-10T02:50:57;100465.88;;;16.67;70.24
57102;BME280;42982;54.558;18.508;2022-07-10T02:52:01;100455.81;;;16.68;70.34
57102;BME280;42982;54.558;18.508;2022-07-10T02:53:03;100465.88;;;16.67;70.33
57102;BME280;42982;54.558;18.508;2022-07-10T02:54:05;100467.00;;;16.66;70.59
57102;BME280;42982;54.558;18.508;2022-07-10T02:55:09;100465.06;;;16.67;70.45
57102;BME280;42982;54.558;18.508;2022-07-10T02:56:14;100468.91;;;16.66;70.33
57102;BME280;42982;54.558;18.508;2022-07-10T02:57:19;100462.69;;;16.65;70.53
57102;BME280;42982;54.558;18.508;2022-07-10T02:58:21;100461.91;;;16.65;70.58
57102;BME280;42982;54.558;18.508;2022-07-10T02:59:24;100461.91;;;16.65;70.66
57102;BME280;42982;54.558;18.508;2022-07-10T03:00:27;100461.91;;;16.65;70.87
57102;BME280;42982;54.558;18.508;2022-07-10T03:01:32;100466.50;;;16.64;70.84
57102;BME280;42982;54.558;18.508;2022-07-10T03:02:38;100459.50;;;16.63;70.89
57102;BME280;42982;54.558;18.508;2022-07-10T03:03:44;100463.00;;;16.64;70.72
57102;BME280;42982;54.558;18.508;2022-07-10T03:04:46;100457.91;;;16.62;70.87
57102;BME280;42982;54.558;18.508;2022-07-10T03:05:52;100458.69;;;16.63;70.91
57102;BME280;42982;54.558;18.508;2022-07-10T03:06:57;100460.28;;;16.64;71.23
57102;BME280;42982;54.558;18.508;2022-07-10T03:08:02;100458.69;;;16.63;70.96
57102;BME280;42982;54.558;18.508;2022-07-10T03:09:07;100458.69;;;16.63;71.04
57102;BME280;42982;54.558;18.508;2022-07-10T03:10:12;100457.13;;;16.62;71.19
57102;BME280;42982;54.558;18.508;2022-07-10T03:11:16;100457.13;;;16.62;71.04
57102;BME280;42982;54.558;18.508;2022-07-10T03:12:21;100458.69;;;16.63;71.17
57102;BME280;42982;54.558;18.508;2022-07-10T03:13:23;100453.91;;;16.60;71.03
57102;BME280;42982;54.558;18.508;2022-07-10T03:14:30;100457.13;;;16.62;71.04
57102;BME280;42982;54.558;18.508;2022-07-10T03:15:34;100450.88;;;16.61;71.33
57102;BME280;42982;54.558;18.508;2022-07-10T03:16:39;100456.63;;;16.60;71.39
57102;BME280;42982;54.558;18.508;2022-07-10T03:17:47;100453.13;;;16.59;71.31
57102;BME280;42982;54.558;18.508;2022-07-10T03:18:50;100456.31;;;16.61;71.44
57102;BME280;42982;54.558;18.508;2022-07-10T03:19:52;100453.13;;;16.59;71.42
57102;BME280;42982;54.558;18.508;2022-07-10T03:20:56;100455.84;;;16.59;71.41
57102;BME280;42982;54.558;18.508;2022-07-10T03:21:59;100455.03;;;16.59;71.61
57102;BME280;42982;54.558;18.508;2022-07-10T03:23:01;100454.69;;;16.60;71.41
57102;BME280;42982;54.558;18.508;2022-07-10T03:24:06;100453.91;;;16.60;71.78
57102;BME280;42982;54.558;18.508;2022-07-10T03:25:11;100459.34;;;16.60;71.65
57102;BME280;42982;54.558;18.508;2022-07-10T03:26:16;100457.41;;;16.60;71.53
57102;BME280;42982;54.558;18.508;2022-07-10T03:27:20;100457.13;;;16.62;71.49
57102;BME280;42982;54.558;18.508;2022-07-10T03:28:23;100459.03;;;16.61;71.59
57102;BME280;42982;54.558;18.508;2022-07-10T03:29:26;100457.13;;;16.62;71.61
57102;BME280;42982;54.558;18.508;2022-07-10T03:30:32;100449.28;;;16.60;71.73
57102;BME280;42982;54.558;18.508;2022-07-10T03:31:35;100460.13;;;16.60;71.63
57102;BME280;42982;54.558;18.508;2022-07-10T03:32:40;100459.34;;;16.60;71.79
57102;BME280;42982;54.558;18.508;2022-07-10T03:33:45;100456.31;;;16.61;72.10
57102;BME280;42982;54.558;18.508;2022-07-10T03:34:47;100458.53;;;16.59;72.03
57102;BME280;42982;54.558;18.508;2022-07-10T03:35:48;100463.97;;;16.59;72.10
57102;BME280;42982;54.558;18.508;2022-07-10T03:36:52;100456.97;;;16.58;72.18
57102;BME280;42982;54.558;18.508;2022-07-10T03:37:55;100457.75;;;16.59;72.07
57102;BME280;42982;54.558;18.508;2022-07-10T03:38:58;100456.13;;;16.58;71.80
57102;BME280;42982;54.558;18.508;2022-07-10T03:40:01;100448.81;;;16.58;71.99
57102;BME280;42982;54.558;18.508;2022-07-10T03:41:08;100455.03;;;16.59;72.23
57102;BME280;42982;54.558;18.508;2022-07-10T03:42:10;100457.75;;;16.59;71.87
57102;BME280;42982;54.558;18.508;2022-07-10T03:43:15;100452.31;;;16.59;72.07
57102;BME280;42982;54.558;18.508;2022-07-10T03:44:20;100453.13;;;16.59;71.99
57102;BME280;42982;54.558;18.508;2022-07-10T03:45:29;100459.34;;;16.60;72.24
57102;BME280;42982;54.558;18.508;2022-07-10T03:46:31;100456.31;;;16.61;72.13
57102;BME280;42982;54.558;18.508;2022-07-10T03:47:34;100457.13;;;16.62;72.15
57102;BME280;42982;54.558;18.508;2022-07-10T03:48:41;100461.41;;;16.63;72.19
57102;BME280;42982;54.558;18.508;2022-07-10T03:49:43;100458.38;;;16.64;72.39
57102;BME280;42982;54.558;18.508;2022-07-10T03:50:48;100457.25;;;16.65;72.49
57102;BME280;42982;54.558;18.508;2022-07-10T03:51:51;100454.22;;;16.67;72.46
57102;BME280;42982;54.558;18.508;2022-07-10T03:52:54;100459.00;;;16.70;72.38
57102;BME280;42982;54.558;18.508;2022-07-10T03:54:00;100458.88;;;16.75;72.21
57102;BME280;42982;54.558;18.508;2022-07-10T03:55:05;100461.88;;;16.82;72.25
57102;BME280;42982;54.558;18.508;2022-07-10T03:56:07;100453.72;;;17.00;72.05
57102;BME280;42982;54.558;18.508;2022-07-10T03:57:18;100455.13;;;17.06;72.12
57102;BME280;42982;54.558;18.508;2022-07-10T03:59:00;100459.69;;;17.23;71.65
57102;BME280;42982;54.558;18.508;2022-07-10T04:00:03;100446.38;;;17.38;71.46
57102;BME280;42982;54.558;18.508;2022-07-10T04:01:16;100455.56;;;17.55;71.24
57102;BME280;42982;54.558;18.508;2022-07-10T04:02:19;100451.50;;;17.70;70.93
57102;BME280;42982;54.558;18.508;2022-07-10T04:03:24;100452.72;;;17.81;70.58
57102;BME280;42982;54.558;18.508;2022-07-10T04:04:49;100449.41;;;17.96;70.18
57102;BME280;42982;54.558;18.508;2022-07-10T04:06:10;100453.00;;;18.09;69.75
57102;BME280;42982;54.558;18.508;2022-07-10T04:07:15;100447.19;;;18.19;69.69
57102;BME280;42982;54.558;18.508;2022-07-10T04:08:37;100453.81;;;18.30;69.61
57102;BME280;42982;54.558;18.508;2022-07-10T04:10:02;100451.88;;;18.31;69.31
57102;BME280;42982;54.558;18.508;2022-07-10T04:11:07;100453.69;;;18.27;69.20
57102;BME280;42982;54.558;18.508;2022-07-10T04:12:29;100454.28;;;18.33;68.75
57102;BME280;42982;54.558;18.508;2022-07-10T04:13:51;100452.47;;;18.37;68.59
57102;BME280;42982;54.558;18.508;2022-07-10T04:15:16;100449.88;;;18.40;68.01
57102;BME280;42982;54.558;18.508;2022-07-10T04:16:20;100452.06;;;18.47;67.93
57102;BME280;42982;54.558;18.508;2022-07-10T04:17:44;100447.81;;;18.58;67.61
57102;BME280;42982;54.558;18.508;2022-07-10T04:19:07;100452.38;;;18.66;67.61
57102;BME280;42982;54.558;18.508;2022-07-10T04:20:29;100446.47;;;18.64;67.19
57102;BME280;42982;54.558;18.508;2022-07-10T04:21:51;100447.44;;;18.81;67.05
57102;BME280;42982;54.558;18.508;2022-07-10T04:22:56;100446.09;;;18.87;66.54
57102;BME280;42982;54.558;18.508;2022-07-10T04:24:20;100450.06;;;18.77;66.46
57102;BME280;42982;54.558;18.508;2022-07-10T04:25:41;100446.22;;;18.69;66.54
57102;BME280;42982;54.558;18.508;2022-07-10T04:26:44;100448.03;;;18.65;66.71
57102;BME280;42982;54.558;18.508;2022-07-10T04:27:46;100443.94;;;18.59;66.71
57102;BME280;42982;54.558;18.508;2022-07-10T04:28:49;100447.34;;;18.56;66.68
57102;BME280;42982;54.558;18.508;2022-07-10T04:29:51;100444.34;;;18.49;66.75
57102;BME280;42982;54.558;18.508;2022-07-10T04:30:56;100455.91;;;18.46;66.87
57102;BME280;42982;54.558;18.508;2022-07-10T04:32:03;100446.84;;;18.42;66.53
57102;BME280;42982;54.558;18.508;2022-07-10T04:33:27;100448.28;;;18.39;66.55
57102;BME280;42982;54.558;18.508;2022-07-10T04:34:50;100448.97;;;18.36;66.68
57102;BME280;42982;54.558;18.508;2022-07-10T04:35:58;100452.69;;;18.32;66.82
57102;BME280;42982;54.558;18.508;2022-07-10T04:37:22;100452.88;;;18.26;67.02
57102;BME280;42982;54.558;18.508;2022-07-10T04:38:44;100446.06;;;18.20;67.06
57102;BME280;42982;54.558;18.508;2022-07-10T04:40:06;100460.31;;;18.17;67.08
57102;BME280;42982;54.558;18.508;2022-07-10T04:41:08;100452.81;;;18.14;66.85
57102;BME280;42982;54.558;18.508;2022-07-10T04:42:30;100446.09;;;18.12;67.12
57102;BME280;42982;54.558;18.508;2022-07-10T04:43:36;100445.97;;;18.08;67.28
57102;BME280;42982;54.558;18.508;2022-07-10T04:44:41;100445.50;;;18.06;67.25
57102;BME280;42982;54.558;18.508;2022-07-10T04:46:03;100443.44;;;18.03;67.23
57102;BME280;42982;54.558;18.508;2022-07-10T04:47:08;100444.94;;;18.00;67.02
57102;BME280;42982;54.558;18.508;2022-07-10T04:48:12;100441.72;;;17.98;67.16
57102;BME280;42982;54.558;18.508;2022-07-10T04:49:35;100444.31;;;17.95;66.78
57102;BME280;42982;54.558;18.508;2022-07-10T04:50:39;100441.13;;;17.93;66.70
57102;BME280;42982;54.558;18.508;2022-07-10T04:52:01;100439.06;;;17.90;66.73
57102;BME280;42982;54.558;18.508;2022-07-10T04:53:24;100444.06;;;17.88;66.87
57102;BME280;42982;54.558;18.508;2022-07-10T04:54:46;100447.44;;;17.85;67.17
57102;BME280;42982;54.558;18.508;2022-07-10T04:55:48;100445.81;;;17.83;67.29
57102;BME280;42982;54.558;18.508;2022-07-10T04:57:11;100446.63;;;17.84;67.48
57102;BME280;42982;54.558;18.508;2022-07-10T04:58:16;100443.09;;;17.83;67.32
57102;BME280;42982;54.558;18.508;2022-07-10T04:59:19;100441.03;;;17.80;67.48
57102;BME280;42982;54.558;18.508;2022-07-10T05:00:20;100435.59;;;17.80;67.57
57102;BME280;42982;54.558;18.508;2022-07-10T05:01:23;100439.47;;;17.79;67.69
57102;BME280;42982;54.558;18.508;2022-07-10T05:02:25;100441.03;;;17.80;68.14
57102;BME280;42982;54.558;18.508;2022-07-10T05:03:28;100440.91;;;17.77;68.16
57102;BME280;42982;54.558;18.508;2022-07-10T05:04:33;100440.09;;;17.76;68.36
57102;BME280;42982;54.558;18.508;2022-07-10T05:05:35;100439.28;;;17.76;68.24
57102;BME280;42982;54.558;18.508;2022-07-10T05:06:38;100445.53;;;17.76;68.46
57102;BME280;42982;54.558;18.508;2022-07-10T05:07:43;100440.09;;;17.76;68.39
57102;BME280;42982;54.558;18.508;2022-07-10T05:08:45;100436.88;;;17.74;68.67
57102;BME280;42982;54.558;18.508;2022-07-10T05:09:50;100439.94;;;17.73;68.90
57102;BME280;42982;54.558;18.508;2022-07-10T05:10:52;100442.31;;;17.74;68.84
57102;BME280;42982;54.558;18.508;2022-07-10T05:11:54;100447.44;;;17.76;68.94
57102;BME280;42982;54.558;18.508;2022-07-10T05:12:56;100445.53;;;17.76;68.95
57102;BME280;42982;54.558;18.508;2022-07-10T05:13:59;100453.88;;;17.71;69.10
57102;BME280;42982;54.558;18.508;2022-07-10T05:15:02;100449.19;;;17.51;70.07
57102;BME280;42982;54.558;18.508;2022-07-10T05:16:07;100446.50;;;17.42;70.82
57102;BME280;42982;54.558;18.508;2022-07-10T05:17:14;100448.34;;;17.21;71.31
57102;BME280;42982;54.558;18.508;2022-07-10T05:18:17;100450.94;;;17.17;72.14
57102;BME280;42982;54.558;18.508;2022-07-10T05:19:19;100455.53;;;17.25;71.71
57102;BME280;42982;54.558;18.508;2022-07-10T05:20:23;100456.00;;;17.27;71.57
57102;BME280;42982;54.558;18.508;2022-07-10T05:21:26;100454.09;;;17.28;71.76
57102;BME280;42982;54.558;18.508;2022-07-10T05:22:29;100452.34;;;17.23;71.73
57102;BME280;42982;54.558;18.508;2022-07-10T05:23:32;100451.22;;;17.24;71.81
57102;BME280;42982;54.558;18.508;2022-07-10T05:24:35;100454.75;;;17.25;71.60
57102;BME280;42982;54.558;18.508;2022-07-10T05:25:42;100451.06;;;17.21;71.99
57102;BME280;42982;54.558;18.508;2022-07-10T05:26:47;100451.06;;;17.21;71.75
57102;BME280;42982;54.558;18.508;2022-07-10T05:27:53;100454.56;;;17.21;71.96
57102;BME280;42982;54.558;18.508;2022-07-10T05:28:56;100449.81;;;17.18;71.93
57102;BME280;42982;54.558;18.508;2022-07-10T05:30:00;100447.75;;;17.15;71.95
57102;BME280;42982;54.558;18.508;2022-07-10T05:31:03;100448.22;;;17.17;71.95
57102;BME280;42982;54.558;18.508;2022-07-10T05:32:05;100449.19;;;17.12;71.92
57102;BME280;42982;54.558;18.508;2022-07-10T05:33:10;100450.63;;;17.10;72.12
57102;BME280;42982;54.558;18.508;2022-07-10T05:34:14;100435.91;;;17.11;72.03
57102;BME280;42982;54.558;18.508;2022-07-10T05:35:17;100442.63;;;17.13;72.12
57102;BME280;42982;54.558;18.508;2022-07-10T05:36:22;100438.63;;;17.11;72.29
57102;BME280;42982;54.558;18.508;2022-07-10T05:37:24;100441.66;;;17.18;72.53
57102;BME280;42982;54.558;18.508;2022-07-10T05:38:29;100441.66;;;17.18;72.44
57102;BME280;42982;54.558;18.508;2022-07-10T05:39:35;100444.56;;;17.13;72.70